First Coast — WCR9075 — position and weather

sailwx.info

Track history (hours):
 
Tides and Currents Weather Stations Pressure Air Temp Water Temp Dewpoint Dewpoint Depression Visibility Wind Speed Wind Dir Waves Ship Positions

First Coast

Owner: DANN MARINE TOWING L C, CHESAPEAKE CITY, MD. More information available from US FCC via Universal Licensing System and Coast Guard Vessel Documentation Center.

Last reported at 2016-Jun-29 23:31 UTC. Time now 2016-Jun-30 05:11 UTC.
Position N 39°32' W 075°45'.

Length 27 m; draft 4 m.

Type: Tug. MMSI: 367024280.

Date/timePositionNaut miles runAvg speedWind from/ knotsBaromVisibWave heightAir tempDewpointWater temp
2016-Jun-29 23:31N 39°32' W 075°45'9 9.6
2016-Jun-29 22:33N 39°34' W 075°33'6 6.0
2016-Jun-29 21:33N 39°40' W 075°32'8 7.6
2016-Jun-29 20:33N 39°46' W 075°28'3 2.7
2016-Jun-29 19:32N 39°48' W 075°25'0 0.0
2016-Jun-29 18:03N 39°48' W 075°25'0 0.0
2016-Jun-29 17:33N 39°48' W 075°25'0 0.0
2016-Jun-29 14:09N 39°48' W 075°25'6 9.6
2016-Jun-29 13:33N 39°51' W 075°19'7 6.7
2016-Jun-29 12:33N 39°53' W 075°10'2 1.5
2016-Jun-29 11:33N 39°54' W 075°09'0 0.0
2016-Jun-29 10:33N 39°54' W 075°09'0 0.0
2016-Jun-29 09:34N 39°54' W 075°09'0 0.0
2016-Jun-29 08:27N 39°54' W 075°09'0 0.0
2016-Jun-29 07:33N 39°54' W 075°09'0 0.0
2016-Jun-29 06:33N 39°54' W 075°09'0 0.0
2016-Jun-29 05:33N 39°54' W 075°09'0 0.0
2016-Jun-29 04:31N 39°54' W 075°09'0 0.0
2016-Jun-29 03:33N 39°54' W 075°09'0 0.0
2016-Jun-29 02:33N 39°54' W 075°09'0 0.0
2016-Jun-29 01:33N 39°54' W 075°09'0 0.0
2016-Jun-29 00:33N 39°54' W 075°09'0 0.0
2016-Jun-28 23:33N 39°54' W 075°09'0 0.0
2016-Jun-28 22:33N 39°54' W 075°09'0 0.0
2016-Jun-28 21:33N 39°54' W 075°09'0 0.0
2016-Jun-28 20:33N 39°54' W 075°09'0 0.0
2016-Jun-28 19:33N 39°54' W 075°09'0 0.0
2016-Jun-28 18:33N 39°54' W 075°09'0 0.0
2016-Jun-28 17:33N 39°54' W 075°09'0 0.0
2016-Jun-28 16:33N 39°54' W 075°09'0 0.0
2016-Jun-28 15:33N 39°54' W 075°09'0 0.0
2016-Jun-28 14:33N 39°54' W 075°09'0 0.0
2016-Jun-28 13:19N 39°54' W 075°09'0 0.0
2016-Jun-28 12:33N 39°54' W 075°09'0 0.0
2016-Jun-28 11:33N 39°54' W 075°09'0 0.0
2016-Jun-28 10:33N 39°54' W 075°09'0 0.0
2016-Jun-28 09:33N 39°54' W 075°09'0 0.0
2016-Jun-28 08:33N 39°54' W 075°09'0 0.0
2016-Jun-28 07:33N 39°54' W 075°09'0 0.0
2016-Jun-28 06:33N 39°54' W 075°09'0 0.0
2016-Jun-28 04:33N 39°54' W 075°09'0 0.0
2016-Jun-28 03:33N 39°54' W 075°09'0 0.0
2016-Jun-28 02:33N 39°54' W 075°09'0 0.0
2016-Jun-28 01:33N 39°54' W 075°09'0 0.0
2016-Jun-28 00:33N 39°54' W 075°09'0 0.0
2016-Jun-27 23:33N 39°54' W 075°09'0 0.0
2016-Jun-27 22:33N 39°54' W 075°09'0 0.0
2016-Jun-27 21:33N 39°54' W 075°09'0 0.0
2016-Jun-27 20:28N 39°54' W 075°09'0 0.0
2016-Jun-27 19:33N 39°54' W 075°09'0 0.0
2016-Jun-27 18:29N 39°54' W 075°09'0 0.0
2016-Jun-27 17:33N 39°54' W 075°09'0 0.0
2016-Jun-27 16:28N 39°54' W 075°09'0 0.0
2016-Jun-27 15:27N 39°54' W 075°09'0 0.0
2016-Jun-27 14:33N 39°54' W 075°09'0 0.0
2016-Jun-27 13:33N 39°54' W 075°09'0 0.0
2016-Jun-27 12:08N 39°54' W 075°09'0 0.0
2016-Jun-27 11:29N 39°54' W 075°09'0 0.0
2016-Jun-27 10:33N 39°54' W 075°09'0 0.0
2016-Jun-27 09:31N 39°54' W 075°09'0 0.0
2016-Jun-27 08:33N 39°54' W 075°09'0 0.0
2016-Jun-27 07:32N 39°54' W 075°09'0 0.0
2016-Jun-27 06:33N 39°54' W 075°09'0 0.0
2016-Jun-27 05:33N 39°54' W 075°09'0 0.0
2016-Jun-27 04:32N 39°54' W 075°09'0 0.0
2016-Jun-27 03:33N 39°54' W 075°09'0 0.0
2016-Jun-27 02:33N 39°54' W 075°09'0 0.0
2016-Jun-27 01:33N 39°54' W 075°09'0 0.0
2016-Jun-27 00:33N 39°54' W 075°09'0 0.0
2016-Jun-26 23:33N 39°54' W 075°09'0 0.0
2016-Jun-26 22:33N 39°54' W 075°09'1 1.2
2016-Jun-26 21:33N 39°55' W 075°08'1 1.2
2016-Jun-26 20:33N 39°54' W 075°09'0 0.0
2016-Jun-26 19:28N 39°54' W 075°09'0 0.0
2016-Jun-26 18:33N 39°54' W 075°09'3 3.3
2016-Jun-26 17:33N 39°57' W 075°08'3 3.0
2016-Jun-26 16:33N 39°54' W 075°08'4 3.7
2016-Jun-26 15:32N 39°54' W 075°13'0 0.4
2016-Jun-26 14:33N 39°54' W 075°13'3 3.1
2016-Jun-26 13:33N 39°53' W 075°09'1 1.4
2016-Jun-26 12:33N 39°54' W 075°08'1 0.6
2016-Jun-26 11:32N 39°53' W 075°08'3 3.1
2016-Jun-26 10:33N 39°54' W 075°12'1 1.1
2016-Jun-26 09:33N 39°55' W 075°13'0 0.0
2016-Jun-26 08:33N 39°55' W 075°13'0 0.0
2016-Jun-26 07:33N 39°55' W 075°13'0 0.0
2016-Jun-26 06:33N 39°55' W 075°13'0 0.0
2016-Jun-26 05:33N 39°55' W 075°13'0 0.0
2016-Jun-26 04:33N 39°55' W 075°13'0 0.0
2016-Jun-26 03:33N 39°55' W 075°13'0 0.0
2016-Jun-26 02:33N 39°55' W 075°13'1 0.8
2016-Jun-26 01:32N 39°54' W 075°13'3 3.3
2016-Jun-26 00:33N 39°54' W 075°08'0 0.1
2016-Jun-25 23:33N 39°54' W 075°09'0 0.0
2016-Jun-25 22:33N 39°54' W 075°09'0 0.0
2016-Jun-25 21:33N 39°54' W 075°09'0 0.0
2016-Jun-25 20:33N 39°54' W 075°09'0 0.0
2016-Jun-25 19:33N 39°54' W 075°09'0 0.0
2016-Jun-25 18:33N 39°54' W 075°09'0 0.0
2016-Jun-25 17:33N 39°54' W 075°09'0 0.0
2016-Jun-25 16:33N 39°54' W 075°09'0 0.0
2016-Jun-25 15:33N 39°54' W 075°09'0 0.0
2016-Jun-25 14:33N 39°54' W 075°09'0 0.0
2016-Jun-25 13:33N 39°54' W 075°09'0 0.0
2016-Jun-25 12:33N 39°54' W 075°09'0 0.0
2016-Jun-25 11:33N 39°54' W 075°09'0 0.0
2016-Jun-25 10:17N 39°54' W 075°09'0 0.0
2016-Jun-25 09:33N 39°54' W 075°09'0 0.0
2016-Jun-25 08:33N 39°54' W 075°09'0 0.0
2016-Jun-25 07:33N 39°54' W 075°09'0 0.0
2016-Jun-25 06:33N 39°54' W 075°09'0 0.0
2016-Jun-25 05:33N 39°54' W 075°09'0 0.0
2016-Jun-25 04:33N 39°54' W 075°09'0 0.0
2016-Jun-25 03:33N 39°54' W 075°09'0 0.0
2016-Jun-25 02:33N 39°54' W 075°09'0 0.0
2016-Jun-25 01:32N 39°54' W 075°09'0 0.0
2016-Jun-25 00:33N 39°54' W 075°09'0 0.0
2016-Jun-24 23:33N 39°54' W 075°09'0 0.0
2016-Jun-24 22:33N 39°54' W 075°09'0 0.0
2016-Jun-24 21:29N 39°54' W 075°09'0 0.0
2016-Jun-24 20:33N 39°54' W 075°09'0 0.0
2016-Jun-24 19:33N 39°54' W 075°09'1 0.5
2016-Jun-24 18:33N 39°54' W 075°08'0 0.0
2016-Jun-24 17:33N 39°54' W 075°08'0 0.0
2016-Jun-24 16:33N 39°54' W 075°08'0 0.0
2016-Jun-24 15:33N 39°54' W 075°08'0 0.0
2016-Jun-24 14:33N 39°54' W 075°08'1 0.5
2016-Jun-24 13:33N 39°54' W 075°09'0 0.0
2016-Jun-24 12:32N 39°54' W 075°09'0 0.0
2016-Jun-24 11:33N 39°54' W 075°09'0 0.0
2016-Jun-24 10:32N 39°54' W 075°09'0 0.0
2016-Jun-24 09:33N 39°54' W 075°09'0 0.0
2016-Jun-24 08:33N 39°54' W 075°09'0 0.0
2016-Jun-24 07:33N 39°54' W 075°09'0 0.0
2016-Jun-24 04:33N 39°54' W 075°09'0 0.0
2016-Jun-24 03:33N 39°54' W 075°09'0 0.0
2016-Jun-24 02:31N 39°54' W 075°09'0 0.0
2016-Jun-24 01:33N 39°54' W 075°09'0 0.0
2016-Jun-24 00:33N 39°54' W 075°09'0 0.0
2016-Jun-23 23:33N 39°54' W 075°09'0 0.0
2016-Jun-23 22:33N 39°54' W 075°09'0 0.0
2016-Jun-23 21:28N 39°54' W 075°09'0 0.0
2016-Jun-23 20:32N 39°54' W 075°09'0 0.0
2016-Jun-23 19:33N 39°54' W 075°09'0 0.0
2016-Jun-23 18:27N 39°54' W 075°09'0 0.0
2016-Jun-23 17:28N 39°54' W 075°09'0 0.0
2016-Jun-23 16:33N 39°54' W 075°09'0 0.0
2016-Jun-23 15:33N 39°54' W 075°09'0 0.0
2016-Jun-23 14:12N 39°54' W 075°09'0 0.0
2016-Jun-23 13:33N 39°54' W 075°09'0 0.0
2016-Jun-23 12:32N 39°54' W 075°09'0 0.0
2016-Jun-23 11:33N 39°54' W 075°09'0 0.0
2016-Jun-23 10:33N 39°54' W 075°09'0 0.0
2016-Jun-23 09:33N 39°54' W 075°09'0 0.0
2016-Jun-23 08:33N 39°54' W 075°09'0 0.0
2016-Jun-23 07:32N 39°54' W 075°09'0 0.0
2016-Jun-23 05:31N 39°54' W 075°09'0 0.0
2016-Jun-23 04:33N 39°54' W 075°09'0 0.0
2016-Jun-23 03:32N 39°54' W 075°09'0 0.0
2016-Jun-23 02:33N 39°54' W 075°09'0 0.0
2016-Jun-23 01:33N 39°54' W 075°09'0 0.0
2016-Jun-23 00:32N 39°54' W 075°09'0 0.0
2016-Jun-22 23:31N 39°54' W 075°09'0 0.0
2016-Jun-22 22:33N 39°54' W 075°09'0 0.0
2016-Jun-22 21:30N 39°54' W 075°09'3 2.7
2016-Jun-22 20:33N 39°53' W 075°12'1 0.7
2016-Jun-22 19:31N 39°54' W 075°12'10 9.6
2016-Jun-22 18:31N 39°49' W 075°23'1 1.2
2016-Jun-22 17:33N 39°49' W 075°25'0 0.4
2016-Jun-22 16:33N 39°48' W 075°24'4 4.0
2016-Jun-22 15:29N 39°51' W 075°20'8 8.7
2016-Jun-22 14:33N 39°53' W 075°10'1 1.3
2016-Jun-22 13:33N 39°54' W 075°09'0 0.0
2016-Jun-22 12:33N 39°54' W 075°09'0 0.0
2016-Jun-22 11:32N 39°54' W 075°09'0 0.0
2016-Jun-22 10:33N 39°54' W 075°09'0 0.0
2016-Jun-22 09:33N 39°54' W 075°09'0 0.0
2016-Jun-22 08:33N 39°54' W 075°09'0 0.0
2016-Jun-22 07:33N 39°54' W 075°09'0 0.0
2016-Jun-22 06:34N 39°54' W 075°09'0 0.0
2016-Jun-22 05:33N 39°54' W 075°09'0 0.0
2016-Jun-22 04:33N 39°54' W 075°09'0 0.0
2016-Jun-22 03:33N 39°54' W 075°09'0 0.0
2016-Jun-22 02:33N 39°54' W 075°09'0 0.0
2016-Jun-22 01:33N 39°54' W 075°09'0 0.0
2016-Jun-22 00:33N 39°54' W 075°09'0 0.0
2016-Jun-21 23:33N 39°54' W 075°09'0 0.0
2016-Jun-21 22:33N 39°54' W 075°09'0 0.0
2016-Jun-21 21:27N 39°54' W 075°09'0 0.0
2016-Jun-21 20:33N 39°54' W 075°09'0 0.0
2016-Jun-21 19:33N 39°54' W 075°09'0 0.0
2016-Jun-21 18:23N 39°54' W 075°09'0 0.0
2016-Jun-21 17:29N 39°54' W 075°09'0 0.0
2016-Jun-21 16:33N 39°54' W 075°09'0 0.0
2016-Jun-21 14:30N 39°54' W 075°09'0 0.0
2016-Jun-21 10:33N 39°54' W 075°09'0 0.0
2016-Jun-21 09:33N 39°54' W 075°09'0 0.0
2016-Jun-21 08:32N 39°54' W 075°09'0 0.0
2016-Jun-21 07:30N 39°54' W 075°09'0 0.0
2016-Jun-21 04:28N 39°54' W 075°09'0 0.0
2016-Jun-21 03:29N 39°54' W 075°09'0 0.0
2016-Jun-21 02:33N 39°54' W 075°09'0 0.0
2016-Jun-21 01:33N 39°54' W 075°09'0 0.0
2016-Jun-21 00:31N 39°54' W 075°09'0 0.0
2016-Jun-20 23:33N 39°54' W 075°09'0 0.0
2016-Jun-20 22:30N 39°54' W 075°09'0 0.0
2016-Jun-20 21:25N 39°54' W 075°09'0 0.0
2016-Jun-20 20:32N 39°54' W 075°09'0 0.0
2016-Jun-20 19:33N 39°54' W 075°09'0 0.0
2016-Jun-20 18:30N 39°54' W 075°09'0 0.0
2016-Jun-20 17:28N 39°54' W 075°09'0 0.0
2016-Jun-20 16:33N 39°54' W 075°09'0 0.0
2016-Jun-20 15:33N 39°54' W 075°09'0 0.0
2016-Jun-20 14:32N 39°54' W 075°09'0 0.0
2016-Jun-20 13:33N 39°54' W 075°09'0 0.0
2016-Jun-20 12:33N 39°54' W 075°09'0 0.0
2016-Jun-20 11:30N 39°54' W 075°09'0 0.0
2016-Jun-20 10:33N 39°54' W 075°09'0 0.0
2016-Jun-20 09:33N 39°54' W 075°09'0 0.0
2016-Jun-20 08:33N 39°54' W 075°09'0 0.0
2016-Jun-20 07:33N 39°54' W 075°09'0 0.0
2016-Jun-20 06:33N 39°54' W 075°09'0 0.0
2016-Jun-20 05:32N 39°54' W 075°09'0 0.0
2016-Jun-20 04:33N 39°54' W 075°09'0 0.0
2016-Jun-20 03:33N 39°54' W 075°09'0 0.0
2016-Jun-20 02:33N 39°54' W 075°09'0 0.0
2016-Jun-20 01:33N 39°54' W 075°09'0 0.0
2016-Jun-20 00:33N 39°54' W 075°09'0 0.0
2016-Jun-19 23:33N 39°54' W 075°09'  
Track history (hours):
 
Tides and Currents Weather Stations Pressure Air Temp Water Temp Dewpoint Dewpoint Depression Visibility Wind Speed Wind Dir Waves Ship Positions

First Coast

Owner: DANN MARINE TOWING L C, CHESAPEAKE CITY, MD. More information available from US FCC via Universal Licensing System and Coast Guard Vessel Documentation Center.

Last reported at 2016-Jun-29 23:31 UTC. Time now 2016-Jun-30 05:11 UTC.
Position N 39°32' W 075°45'.

Length 27 m; draft 4 m.

Type: Tug. MMSI: 367024280.

Date/timePositionNaut miles runAvg speedWind from/ knotsBaromVisibWave heightAir tempDewpointWater temp
2016-Jun-29 23:31N 39°32' W 075°45'9 9.6
2016-Jun-29 22:33N 39°34' W 075°33'6 6.0
2016-Jun-29 21:33N 39°40' W 075°32'8 7.6
2016-Jun-29 20:33N 39°46' W 075°28'3 2.7
2016-Jun-29 19:32N 39°48' W 075°25'0 0.0
2016-Jun-29 18:03N 39°48' W 075°25'0 0.0
2016-Jun-29 17:33N 39°48' W 075°25'0 0.0
2016-Jun-29 14:09N 39°48' W 075°25'6 9.6
2016-Jun-29 13:33N 39°51' W 075°19'7 6.7
2016-Jun-29 12:33N 39°53' W 075°10'2 1.5
2016-Jun-29 11:33N 39°54' W 075°09'0 0.0
2016-Jun-29 10:33N 39°54' W 075°09'0 0.0
2016-Jun-29 09:34N 39°54' W 075°09'0 0.0
2016-Jun-29 08:27N 39°54' W 075°09'0 0.0
2016-Jun-29 07:33N 39°54' W 075°09'0 0.0
2016-Jun-29 06:33N 39°54' W 075°09'0 0.0
2016-Jun-29 05:33N 39°54' W 075°09'0 0.0
2016-Jun-29 04:31N 39°54' W 075°09'0 0.0
2016-Jun-29 03:33N 39°54' W 075°09'0 0.0
2016-Jun-29 02:33N 39°54' W 075°09'0 0.0
2016-Jun-29 01:33N 39°54' W 075°09'0 0.0
2016-Jun-29 00:33N 39°54' W 075°09'0 0.0
2016-Jun-28 23:33N 39°54' W 075°09'0 0.0
2016-Jun-28 22:33N 39°54' W 075°09'0 0.0
2016-Jun-28 21:33N 39°54' W 075°09'0 0.0
2016-Jun-28 20:33N 39°54' W 075°09'0 0.0
2016-Jun-28 19:33N 39°54' W 075°09'0 0.0
2016-Jun-28 18:33N 39°54' W 075°09'0 0.0
2016-Jun-28 17:33N 39°54' W 075°09'0 0.0
2016-Jun-28 16:33N 39°54' W 075°09'0 0.0
2016-Jun-28 15:33N 39°54' W 075°09'0 0.0
2016-Jun-28 14:33N 39°54' W 075°09'0 0.0
2016-Jun-28 13:19N 39°54' W 075°09'0 0.0
2016-Jun-28 12:33N 39°54' W 075°09'0 0.0
2016-Jun-28 11:33N 39°54' W 075°09'0 0.0
2016-Jun-28 10:33N 39°54' W 075°09'0 0.0
2016-Jun-28 09:33N 39°54' W 075°09'0 0.0
2016-Jun-28 08:33N 39°54' W 075°09'0 0.0
2016-Jun-28 07:33N 39°54' W 075°09'0 0.0
2016-Jun-28 06:33N 39°54' W 075°09'0 0.0
2016-Jun-28 04:33N 39°54' W 075°09'0 0.0
2016-Jun-28 03:33N 39°54' W 075°09'0 0.0
2016-Jun-28 02:33N 39°54' W 075°09'0 0.0
2016-Jun-28 01:33N 39°54' W 075°09'0 0.0
2016-Jun-28 00:33N 39°54' W 075°09'0 0.0
2016-Jun-27 23:33N 39°54' W 075°09'0 0.0
2016-Jun-27 22:33N 39°54' W 075°09'0 0.0
2016-Jun-27 21:33N 39°54' W 075°09'0 0.0
2016-Jun-27 20:28N 39°54' W 075°09'0 0.0
2016-Jun-27 19:33N 39°54' W 075°09'0 0.0
2016-Jun-27 18:29N 39°54' W 075°09'0 0.0
2016-Jun-27 17:33N 39°54' W 075°09'0 0.0
2016-Jun-27 16:28N 39°54' W 075°09'0 0.0
2016-Jun-27 15:27N 39°54' W 075°09'0 0.0
2016-Jun-27 14:33N 39°54' W 075°09'0 0.0
2016-Jun-27 13:33N 39°54' W 075°09'0 0.0
2016-Jun-27 12:08N 39°54' W 075°09'0 0.0
2016-Jun-27 11:29N 39°54' W 075°09'0 0.0
2016-Jun-27 10:33N 39°54' W 075°09'0 0.0
2016-Jun-27 09:31N 39°54' W 075°09'0 0.0
2016-Jun-27 08:33N 39°54' W 075°09'0 0.0
2016-Jun-27 07:32N 39°54' W 075°09'0 0.0
2016-Jun-27 06:33N 39°54' W 075°09'0 0.0
2016-Jun-27 05:33N 39°54' W 075°09'0 0.0
2016-Jun-27 04:32N 39°54' W 075°09'0 0.0
2016-Jun-27 03:33N 39°54' W 075°09'0 0.0
2016-Jun-27 02:33N 39°54' W 075°09'0 0.0
2016-Jun-27 01:33N 39°54' W 075°09'0 0.0
2016-Jun-27 00:33N 39°54' W 075°09'0 0.0
2016-Jun-26 23:33N 39°54' W 075°09'0 0.0
2016-Jun-26 22:33N 39°54' W 075°09'1 1.2
2016-Jun-26 21:33N 39°55' W 075°08'1 1.2
2016-Jun-26 20:33N 39°54' W 075°09'0 0.0
2016-Jun-26 19:28N 39°54' W 075°09'0 0.0
2016-Jun-26 18:33N 39°54' W 075°09'3 3.3
2016-Jun-26 17:33N 39°57' W 075°08'3 3.0
2016-Jun-26 16:33N 39°54' W 075°08'4 3.7
2016-Jun-26 15:32N 39°54' W 075°13'0 0.4
2016-Jun-26 14:33N 39°54' W 075°13'3 3.1
2016-Jun-26 13:33N 39°53' W 075°09'1 1.4
2016-Jun-26 12:33N 39°54' W 075°08'1 0.6
2016-Jun-26 11:32N 39°53' W 075°08'3 3.1
2016-Jun-26 10:33N 39°54' W 075°12'1 1.1
2016-Jun-26 09:33N 39°55' W 075°13'0 0.0
2016-Jun-26 08:33N 39°55' W 075°13'0 0.0
2016-Jun-26 07:33N 39°55' W 075°13'0 0.0
2016-Jun-26 06:33N 39°55' W 075°13'0 0.0
2016-Jun-26 05:33N 39°55' W 075°13'0 0.0
2016-Jun-26 04:33N 39°55' W 075°13'0 0.0
2016-Jun-26 03:33N 39°55' W 075°13'0 0.0
2016-Jun-26 02:33N 39°55' W 075°13'1 0.8
2016-Jun-26 01:32N 39°54' W 075°13'3 3.3
2016-Jun-26 00:33N 39°54' W 075°08'0 0.1
2016-Jun-25 23:33N 39°54' W 075°09'0 0.0
2016-Jun-25 22:33N 39°54' W 075°09'0 0.0
2016-Jun-25 21:33N 39°54' W 075°09'0 0.0
2016-Jun-25 20:33N 39°54' W 075°09'0 0.0
2016-Jun-25 19:33N 39°54' W 075°09'0 0.0
2016-Jun-25 18:33N 39°54' W 075°09'0 0.0
2016-Jun-25 17:33N 39°54' W 075°09'0 0.0
2016-Jun-25 16:33N 39°54' W 075°09'0 0.0
2016-Jun-25 15:33N 39°54' W 075°09'0 0.0
2016-Jun-25 14:33N 39°54' W 075°09'0 0.0
2016-Jun-25 13:33N 39°54' W 075°09'0 0.0
2016-Jun-25 12:33N 39°54' W 075°09'0 0.0
2016-Jun-25 11:33N 39°54' W 075°09'0 0.0
2016-Jun-25 10:17N 39°54' W 075°09'0 0.0
2016-Jun-25 09:33N 39°54' W 075°09'0 0.0
2016-Jun-25 08:33N 39°54' W 075°09'0 0.0
2016-Jun-25 07:33N 39°54' W 075°09'0 0.0
2016-Jun-25 06:33N 39°54' W 075°09'0 0.0
2016-Jun-25 05:33N 39°54' W 075°09'0 0.0
2016-Jun-25 04:33N 39°54' W 075°09'0 0.0
2016-Jun-25 03:33N 39°54' W 075°09'0 0.0
2016-Jun-25 02:33N 39°54' W 075°09'0 0.0
2016-Jun-25 01:32N 39°54' W 075°09'0 0.0
2016-Jun-25 00:33N 39°54' W 075°09'0 0.0
2016-Jun-24 23:33N 39°54' W 075°09'0 0.0
2016-Jun-24 22:33N 39°54' W 075°09'0 0.0
2016-Jun-24 21:29N 39°54' W 075°09'0 0.0
2016-Jun-24 20:33N 39°54' W 075°09'0 0.0
2016-Jun-24 19:33N 39°54' W 075°09'1 0.5
2016-Jun-24 18:33N 39°54' W 075°08'0 0.0
2016-Jun-24 17:33N 39°54' W 075°08'0 0.0
2016-Jun-24 16:33N 39°54' W 075°08'0 0.0
2016-Jun-24 15:33N 39°54' W 075°08'0 0.0
2016-Jun-24 14:33N 39°54' W 075°08'1 0.5
2016-Jun-24 13:33N 39°54' W 075°09'0 0.0
2016-Jun-24 12:32N 39°54' W 075°09'0 0.0
2016-Jun-24 11:33N 39°54' W 075°09'0 0.0
2016-Jun-24 10:32N 39°54' W 075°09'0 0.0
2016-Jun-24 09:33N 39°54' W 075°09'0 0.0
2016-Jun-24 08:33N 39°54' W 075°09'0 0.0
2016-Jun-24 07:33N 39°54' W 075°09'0 0.0
2016-Jun-24 04:33N 39°54' W 075°09'0 0.0
2016-Jun-24 03:33N 39°54' W 075°09'0 0.0
2016-Jun-24 02:31N 39°54' W 075°09'0 0.0
2016-Jun-24 01:33N 39°54' W 075°09'0 0.0
2016-Jun-24 00:33N 39°54' W 075°09'0 0.0
2016-Jun-23 23:33N 39°54' W 075°09'0 0.0
2016-Jun-23 22:33N 39°54' W 075°09'0 0.0
2016-Jun-23 21:28N 39°54' W 075°09'0 0.0
2016-Jun-23 20:32N 39°54' W 075°09'0 0.0
2016-Jun-23 19:33N 39°54' W 075°09'0 0.0
2016-Jun-23 18:27N 39°54' W 075°09'0 0.0
2016-Jun-23 17:28N 39°54' W 075°09'0 0.0
2016-Jun-23 16:33N 39°54' W 075°09'0 0.0
2016-Jun-23 15:33N 39°54' W 075°09'0 0.0
2016-Jun-23 14:12N 39°54' W 075°09'0 0.0
2016-Jun-23 13:33N 39°54' W 075°09'0 0.0
2016-Jun-23 12:32N 39°54' W 075°09'0 0.0
2016-Jun-23 11:33N 39°54' W 075°09'0 0.0
2016-Jun-23 10:33N 39°54' W 075°09'0 0.0
2016-Jun-23 09:33N 39°54' W 075°09'0 0.0
2016-Jun-23 08:33N 39°54' W 075°09'0 0.0
2016-Jun-23 07:32N 39°54' W 075°09'0 0.0
2016-Jun-23 05:31N 39°54' W 075°09'0 0.0
2016-Jun-23 04:33N 39°54' W 075°09'0 0.0
2016-Jun-23 03:32N 39°54' W 075°09'0 0.0
2016-Jun-23 02:33N 39°54' W 075°09'0 0.0
2016-Jun-23 01:33N 39°54' W 075°09'0 0.0
2016-Jun-23 00:32N 39°54' W 075°09'0 0.0
2016-Jun-22 23:31N 39°54' W 075°09'0 0.0
2016-Jun-22 22:33N 39°54' W 075°09'0 0.0
2016-Jun-22 21:30N 39°54' W 075°09'3 2.7
2016-Jun-22 20:33N 39°53' W 075°12'1 0.7
2016-Jun-22 19:31N 39°54' W 075°12'10 9.6
2016-Jun-22 18:31N 39°49' W 075°23'1 1.2
2016-Jun-22 17:33N 39°49' W 075°25'0 0.4
2016-Jun-22 16:33N 39°48' W 075°24'4 4.0
2016-Jun-22 15:29N 39°51' W 075°20'8 8.7
2016-Jun-22 14:33N 39°53' W 075°10'1 1.3
2016-Jun-22 13:33N 39°54' W 075°09'0 0.0
2016-Jun-22 12:33N 39°54' W 075°09'0 0.0
2016-Jun-22 11:32N 39°54' W 075°09'0 0.0
2016-Jun-22 10:33N 39°54' W 075°09'0 0.0
2016-Jun-22 09:33N 39°54' W 075°09'0 0.0
2016-Jun-22 08:33N 39°54' W 075°09'0 0.0
2016-Jun-22 07:33N 39°54' W 075°09'0 0.0
2016-Jun-22 06:34N 39°54' W 075°09'0 0.0
2016-Jun-22 05:33N 39°54' W 075°09'0 0.0
2016-Jun-22 04:33N 39°54' W 075°09'0 0.0
2016-Jun-22 03:33N 39°54' W 075°09'0 0.0
2016-Jun-22 02:33N 39°54' W 075°09'0 0.0
2016-Jun-22 01:33N 39°54' W 075°09'0 0.0
2016-Jun-22 00:33N 39°54' W 075°09'0 0.0
2016-Jun-21 23:33N 39°54' W 075°09'0 0.0
2016-Jun-21 22:33N 39°54' W 075°09'0 0.0
2016-Jun-21 21:27N 39°54' W 075°09'0 0.0
2016-Jun-21 20:33N 39°54' W 075°09'0 0.0
2016-Jun-21 19:33N 39°54' W 075°09'0 0.0
2016-Jun-21 18:23N 39°54' W 075°09'0 0.0
2016-Jun-21 17:29N 39°54' W 075°09'0 0.0
2016-Jun-21 16:33N 39°54' W 075°09'0 0.0
2016-Jun-21 14:30N 39°54' W 075°09'0 0.0
2016-Jun-21 10:33N 39°54' W 075°09'0 0.0
2016-Jun-21 09:33N 39°54' W 075°09'0 0.0
2016-Jun-21 08:32N 39°54' W 075°09'0 0.0
2016-Jun-21 07:30N 39°54' W 075°09'0 0.0
2016-Jun-21 04:28N 39°54' W 075°09'0 0.0
2016-Jun-21 03:29N 39°54' W 075°09'0 0.0
2016-Jun-21 02:33N 39°54' W 075°09'0 0.0
2016-Jun-21 01:33N 39°54' W 075°09'0 0.0
2016-Jun-21 00:31N 39°54' W 075°09'0 0.0
2016-Jun-20 23:33N 39°54' W 075°09'0 0.0
2016-Jun-20 22:30N 39°54' W 075°09'0 0.0
2016-Jun-20 21:25N 39°54' W 075°09'0 0.0
2016-Jun-20 20:32N 39°54' W 075°09'0 0.0
2016-Jun-20 19:33N 39°54' W 075°09'0 0.0
2016-Jun-20 18:30N 39°54' W 075°09'0 0.0
2016-Jun-20 17:28N 39°54' W 075°09'0 0.0
2016-Jun-20 16:33N 39°54' W 075°09'0 0.0
2016-Jun-20 15:33N 39°54' W 075°09'0 0.0
2016-Jun-20 14:32N 39°54' W 075°09'0 0.0
2016-Jun-20 13:33N 39°54' W 075°09'0 0.0
2016-Jun-20 12:33N 39°54' W 075°09'0 0.0
2016-Jun-20 11:30N 39°54' W 075°09'0 0.0
2016-Jun-20 10:33N 39°54' W 075°09'0 0.0
2016-Jun-20 09:33N 39°54' W 075°09'0 0.0
2016-Jun-20 08:33N 39°54' W 075°09'0 0.0
2016-Jun-20 07:33N 39°54' W 075°09'0 0.0
2016-Jun-20 06:33N 39°54' W 075°09'0 0.0
2016-Jun-20 05:32N 39°54' W 075°09'0 0.0
2016-Jun-20 04:33N 39°54' W 075°09'0 0.0
2016-Jun-20 03:33N 39°54' W 075°09'0 0.0
2016-Jun-20 02:33N 39°54' W 075°09'0 0.0
2016-Jun-20 01:33N 39°54' W 075°09'0 0.0
2016-Jun-20 00:33N 39°54' W 075°09'0 0.0
2016-Jun-19 23:33N 39°54' W 075°09'  

Dump ship's entire track history